sensor_id;sensor_type;location;lat;lon;timestamp;pressure;altitude;pressure_sealevel;temperature;humidity
35649;BME280;21768;48.562;13.414;2024-02-21T00:01:18;98274.25;;;8.52;59.63
35649;BME280;21768;48.562;13.414;2024-02-21T00:03:43;98276.16;;;8.55;59.58
35649;BME280;21768;48.562;13.414;2024-02-21T00:06:09;98277.78;;;8.55;59.72
35649;BME280;21768;48.562;13.414;2024-02-21T00:08:35;98278.53;;;8.53;59.82
35649;BME280;21768;48.562;13.414;2024-02-21T00:11:01;98277.16;;;8.57;59.94
35649;BME280;21768;48.562;13.414;2024-02-21T00:13:27;98273.03;;;8.58;60.18
35649;BME280;21768;48.562;13.414;2024-02-21T00:15:53;98275.53;;;8.58;60.12
35649;BME280;21768;48.562;13.414;2024-02-21T00:18:19;98279.81;;;8.59;60.19
35649;BME280;21768;48.562;13.414;2024-02-21T00:20:44;98272.13;;;8.57;60.11
35649;BME280;21768;48.562;13.414;2024-02-21T00:23:10;98274.91;;;8.60;60.10
35649;BME280;21768;48.562;13.414;2024-02-21T00:25:35;98270.03;;;8.62;60.21
35649;BME280;21768;48.562;13.414;2024-02-21T00:28:04;98269.00;;;8.60;60.21
35649;BME280;21768;48.562;13.414;2024-02-21T00:30:31;98266.50;;;8.60;60.32
35649;BME280;21768;48.562;13.414;2024-02-21T00:32:57;98270.63;;;8.59;60.53
35649;BME280;21768;48.562;13.414;2024-02-21T00:35:24;98262.97;;;8.58;60.62
35649;BME280;21768;48.562;13.414;2024-02-21T00:37:50;98261.47;;;8.60;60.94
35649;BME280;21768;48.562;13.414;2024-02-21T00:40:16;98258.94;;;8.60;60.75
35649;BME280;21768;48.562;13.414;2024-02-21T00:42:47;98258.81;;;8.58;60.72
35649;BME280;21768;48.562;13.414;2024-02-21T00:45:14;98252.03;;;8.57;60.48
35649;BME280;21768;48.562;13.414;2024-02-21T00:47:39;98255.00;;;8.53;60.88
35649;BME280;21768;48.562;13.414;2024-02-21T00:50:06;98255.16;;;8.55;60.58
35649;BME280;21768;48.562;13.414;2024-02-21T00:52:32;98262.69;;;8.55;60.21
35649;BME280;21768;48.562;13.414;2024-02-21T00:54:59;98257.41;;;8.51;60.47
35649;BME280;21768;48.562;13.414;2024-02-21T00:57:25;98254.88;;;8.51;60.45
35649;BME280;21768;48.562;13.414;2024-02-21T00:59:51;98255.50;;;8.49;60.35
35649;BME280;21768;48.562;13.414;2024-02-21T01:02:16;98252.72;;;8.46;60.27
35649;BME280;21768;48.562;13.414;2024-02-21T01:04:42;98252.09;;;8.48;60.16
35649;BME280;21768;48.562;13.414;2024-02-21T01:07:09;98251.06;;;8.46;60.14
35649;BME280;21768;48.562;13.414;2024-02-21T01:09:35;98244.41;;;8.47;60.13
35649;BME280;21768;48.562;13.414;2024-02-21T01:12:00;98244.97;;;8.53;60.37
35649;BME280;21768;48.562;13.414;2024-02-21T01:14:26;98235.78;;;8.53;59.92
35649;BME280;21768;48.562;13.414;2024-02-21T01:16:51;98233.88;;;8.51;59.87
35649;BME280;21768;48.562;13.414;2024-02-21T01:19:17;98235.25;;;8.47;59.72
35649;BME280;21768;48.562;13.414;2024-02-21T01:21:43;98230.06;;;8.46;59.63
35649;BME280;21768;48.562;13.414;2024-02-21T01:24:09;98226.41;;;8.42;59.99
35649;BME280;21768;48.562;13.414;2024-02-21T01:26:35;98222.66;;;8.37;60.01
35649;BME280;21768;48.562;13.414;2024-02-21T01:29:00;98222.38;;;8.34;60.10
35649;BME280;21768;48.562;13.414;2024-02-21T01:31:26;98224.91;;;8.34;60.28
35649;BME280;21768;48.562;13.414;2024-02-21T01:33:51;98213.81;;;8.32;60.50
35649;BME280;21768;48.562;13.414;2024-02-21T01:36:17;98214.69;;;8.33;60.51
35649;BME280;21768;48.562;13.414;2024-02-21T01:38:42;98212.03;;;8.31;60.72
35649;BME280;21768;48.562;13.414;2024-02-21T01:41:08;98203.16;;;8.35;61.09
35649;BME280;21768;48.562;13.414;2024-02-21T01:43:34;98204.91;;;8.36;60.84
35649;BME280;21768;48.562;13.414;2024-02-21T01:46:00;98202.28;;;8.34;60.97
35649;BME280;21768;48.562;13.414;2024-02-21T01:48:26;98193.84;;;8.34;61.13
35649;BME280;21768;48.562;13.414;2024-02-21T01:50:54;98192.97;;;8.33;61.31
35649;BME280;21768;48.562;13.414;2024-02-21T01:53:23;98187.44;;;8.37;61.16
35649;BME280;21768;48.562;13.414;2024-02-21T01:55:51;98186.69;;;8.38;60.82
35649;BME280;21768;48.562;13.414;2024-02-21T01:58:18;98184.06;;;8.37;60.83
35649;BME280;21768;48.562;13.414;2024-02-21T02:00:46;98181.53;;;8.37;60.83
35649;BME280;21768;48.562;13.414;2024-02-21T02:03:13;98186.69;;;8.38;61.02
35649;BME280;21768;48.562;13.414;2024-02-21T02:05:45;98180.91;;;8.39;61.05
35649;BME280;21768;48.562;13.414;2024-02-21T02:08:15;98183.56;;;8.41;61.19
35649;BME280;21768;48.562;13.414;2024-02-21T02:10:41;98175.63;;;8.36;60.94
35649;BME280;21768;48.562;13.414;2024-02-21T02:13:08;98172.41;;;8.29;60.86
35649;BME280;21768;48.562;13.414;2024-02-21T02:18:09;98175.31;;;8.04;61.20
35649;BME280;21768;48.562;13.414;2024-02-21T02:20:35;98178.78;;;7.96;61.23
35649;BME280;21768;48.562;13.414;2024-02-21T02:23:07;98180.78;;;7.90;61.36
35649;BME280;21768;48.562;13.414;2024-02-21T02:25:34;98175.50;;;7.87;61.46
35649;BME280;21768;48.562;13.414;2024-02-21T02:28:00;98167.81;;;7.85;61.36
35649;BME280;21768;48.562;13.414;2024-02-21T02:30:25;98171.09;;;7.84;61.47
35649;BME280;21768;48.562;13.414;2024-02-21T02:32:51;98161.78;;;7.83;61.36
35649;BME280;21768;48.562;13.414;2024-02-21T02:35:17;98158.66;;;7.86;61.47
35649;BME280;21768;48.562;13.414;2024-02-21T02:37:49;98152.75;;;7.85;61.71
35649;BME280;21768;48.562;13.414;2024-02-21T02:40:15;98154.53;;;7.87;61.66
35649;BME280;21768;48.562;13.414;2024-02-21T02:42:41;98158.06;;;7.89;61.95
35649;BME280;21768;48.562;13.414;2024-02-21T02:45:07;98143.25;;;7.92;61.81
35649;BME280;21768;48.562;13.414;2024-02-21T02:47:33;98151.63;;;7.92;61.83
35649;BME280;21768;48.562;13.414;2024-02-21T02:50:00;98137.06;;;7.88;61.41
35649;BME280;21768;48.562;13.414;2024-02-21T02:52:26;98127.38;;;7.82;61.37
35649;BME280;21768;48.562;13.414;2024-02-21T02:54:52;98139.19;;;7.83;61.72
35649;BME280;21768;48.562;13.414;2024-02-21T02:57:21;98132.66;;;7.85;61.89
35649;BME280;21768;48.562;13.414;2024-02-21T02:59:48;98139.72;;;7.90;61.92
35649;BME280;21768;48.562;13.414;2024-02-21T03:02:14;98126.66;;;7.94;61.83
35649;BME280;21768;48.562;13.414;2024-02-21T03:04:40;98131.81;;;7.95;62.17
35649;BME280;21768;48.562;13.414;2024-02-21T03:07:06;98123.38;;;7.95;61.64
35649;BME280;21768;48.562;13.414;2024-02-21T03:09:31;98115.09;;;7.96;61.29
35649;BME280;21768;48.562;13.414;2024-02-21T03:11:58;98115.09;;;7.96;61.45
35649;BME280;21768;48.562;13.414;2024-02-21T03:14:31;98119.09;;;7.94;61.58
35649;BME280;21768;48.562;13.414;2024-02-21T03:16:58;98117.47;;;7.94;61.61
35649;BME280;21768;48.562;13.414;2024-02-21T03:19:28;98112.84;;;7.89;61.53
35649;BME280;21768;48.562;13.414;2024-02-21T03:21:53;98112.84;;;7.89;61.41
35649;BME280;21768;48.562;13.414;2024-02-21T03:24:19;98104.53;;;7.90;61.16
35649;BME280;21768;48.562;13.414;2024-02-21T03:26:46;98099.75;;;7.93;61.00
35649;BME280;21768;48.562;13.414;2024-02-21T03:29:16;98113.34;;;7.95;61.00
35649;BME280;21768;48.562;13.414;2024-02-21T03:31:42;98110.81;;;7.95;61.19
35649;BME280;21768;48.562;13.414;2024-02-21T03:34:13;98112.31;;;7.93;60.95
35649;BME280;21768;48.562;13.414;2024-02-21T03:36:39;98114.34;;;7.97;60.51
35649;BME280;21768;48.562;13.414;2024-02-21T03:39:05;98112.09;;;8.00;60.97
35649;BME280;21768;48.562;13.414;2024-02-21T03:41:31;98115.63;;;8.02;60.88
35649;BME280;21768;48.562;13.414;2024-02-21T03:43:57;98109.38;;;8.07;60.53
35649;BME280;21768;48.562;13.414;2024-02-21T03:46:24;98111.13;;;8.08;60.61
35649;BME280;21768;48.562;13.414;2024-02-21T03:48:50;98115.28;;;8.07;60.66
35649;BME280;21768;48.562;13.414;2024-02-21T03:51:16;98107.63;;;8.06;61.04
35649;BME280;21768;48.562;13.414;2024-02-21T03:53:45;98116.91;;;8.07;61.23
35649;BME280;21768;48.562;13.414;2024-02-21T03:56:10;98108.22;;;8.03;61.48
35649;BME280;21768;48.562;13.414;2024-02-21T03:58:36;98115.63;;;8.02;61.16
35649;BME280;21768;48.562;13.414;2024-02-21T04:01:03;98119.50;;;7.98;60.99
35649;BME280;21768;48.562;13.414;2024-02-21T04:03:30;98126.31;;;7.99;60.86
35649;BME280;21768;48.562;13.414;2024-02-21T04:05:56;98124.66;;;8.00;61.00
35649;BME280;21768;48.562;13.414;2024-02-21T04:08:22;98120.41;;;7.99;61.26
35649;BME280;21768;48.562;13.414;2024-02-21T04:10:48;98127.19;;;8.00;61.39
35649;BME280;21768;48.562;13.414;2024-02-21T04:13:14;98115.97;;;7.96;61.39
35649;BME280;21768;48.562;13.414;2024-02-21T04:15:39;98115.09;;;7.96;61.63
35649;BME280;21768;48.562;13.414;2024-02-21T04:18:05;98122.50;;;7.94;61.42
35649;BME280;21768;48.562;13.414;2024-02-21T04:20:32;98124.88;;;7.93;61.34
35649;BME280;21768;48.562;13.414;2024-02-21T04:22:58;98121.63;;;7.94;61.00
35649;BME280;21768;48.562;13.414;2024-02-21T04:25:23;98117.25;;;7.91;60.84
35649;BME280;21768;48.562;13.414;2024-02-21T04:27:49;98118.97;;;7.92;60.89
35649;BME280;21768;48.562;13.414;2024-02-21T04:30:15;98110.69;;;7.93;60.80
35649;BME280;21768;48.562;13.414;2024-02-21T04:32:41;98109.56;;;7.90;61.30
35649;BME280;21768;48.562;13.414;2024-02-21T04:35:07;98106.78;;;7.87;61.49
35649;BME280;21768;48.562;13.414;2024-02-21T04:37:33;98101.50;;;7.83;61.52
35649;BME280;21768;48.562;13.414;2024-02-21T04:39:59;98096.19;;;7.80;61.75
35649;BME280;21768;48.562;13.414;2024-02-21T04:42:25;98091.66;;;7.76;61.82
35649;BME280;21768;48.562;13.414;2024-02-21T04:44:51;98091.66;;;7.76;61.89
35649;BME280;21768;48.562;13.414;2024-02-21T04:47:19;98093.44;;;7.77;61.88
35649;BME280;21768;48.562;13.414;2024-02-21T04:49:49;98086.78;;;7.78;61.58
35649;BME280;21768;48.562;13.414;2024-02-21T04:52:15;98082.50;;;7.77;61.39
35649;BME280;21768;48.562;13.414;2024-02-21T04:54:40;98076.59;;;7.76;61.57
35649;BME280;21768;48.562;13.414;2024-02-21T04:57:07;98072.44;;;7.77;61.71
35649;BME280;21768;48.562;13.414;2024-02-21T04:59:33;98073.34;;;7.77;61.75
35649;BME280;21768;48.562;13.414;2024-02-21T05:02:01;98079.22;;;7.78;61.88
35649;BME280;21768;48.562;13.414;2024-02-21T05:04:26;98075.97;;;7.79;61.83
35649;BME280;21768;48.562;13.414;2024-02-21T05:06:52;98068.78;;;7.73;61.63
35649;BME280;21768;48.562;13.414;2024-02-21T05:09:18;98066.53;;;7.76;61.58
35649;BME280;21768;48.562;13.414;2024-02-21T05:11:43;98064.38;;;7.71;61.36
35649;BME280;21768;48.562;13.414;2024-02-21T05:14:09;98072.53;;;7.68;61.85
35649;BME280;21768;48.562;13.414;2024-02-21T05:16:35;98078.56;;;7.70;61.94
35649;BME280;21768;48.562;13.414;2024-02-21T05:19:01;98075.56;;;7.74;62.14
35649;BME280;21768;48.562;13.414;2024-02-21T05:21:28;98066.81;;;7.79;62.21
35649;BME280;21768;48.562;13.414;2024-02-21T05:23:54;98068.56;;;7.80;61.77
35649;BME280;21768;48.562;13.414;2024-02-21T05:26:20;98061.78;;;7.79;62.00
35649;BME280;21768;48.562;13.414;2024-02-21T05:28:47;98058.53;;;7.80;61.61
35649;BME280;21768;48.562;13.414;2024-02-21T05:31:14;98055.00;;;7.78;61.65
35649;BME280;21768;48.562;13.414;2024-02-21T05:33:40;98057.50;;;7.78;61.70
35649;BME280;21768;48.562;13.414;2024-02-21T05:36:06;98060.03;;;7.78;61.93
35649;BME280;21768;48.562;13.414;2024-02-21T05:38:32;98049.97;;;7.78;61.75
35649;BME280;21768;48.562;13.414;2024-02-21T05:40:58;98052.00;;;7.82;61.53
35649;BME280;21768;48.562;13.414;2024-02-21T05:43:24;98045.00;;;7.89;61.28
35649;BME280;21768;48.562;13.414;2024-02-21T05:45:49;98050.91;;;7.89;61.31
35649;BME280;21768;48.562;13.414;2024-02-21T05:48:15;98050.78;;;7.88;61.66
35649;BME280;21768;48.562;13.414;2024-02-21T05:50:41;98039.72;;;7.85;61.93
35649;BME280;21768;48.562;13.414;2024-02-21T05:53:08;98043.09;;;7.86;61.68
35649;BME280;21768;48.562;13.414;2024-02-21T05:55:35;98041.47;;;7.87;61.59
35649;BME280;21768;48.562;13.414;2024-02-21T05:58:01;98040.72;;;7.88;61.90
35649;BME280;21768;48.562;13.414;2024-02-21T06:00:28;98043.38;;;7.89;62.30
35649;BME280;21768;48.562;13.414;2024-02-21T06:02:53;98039.47;;;7.93;61.95
35649;BME280;21768;48.562;13.414;2024-02-21T06:05:19;98044.75;;;7.96;61.88
35649;BME280;21768;48.562;13.414;2024-02-21T06:07:46;98044.75;;;7.96;62.18
35649;BME280;21768;48.562;13.414;2024-02-21T06:10:11;98046.50;;;7.97;62.22
35649;BME280;21768;48.562;13.414;2024-02-21T06:12:37;98040.47;;;7.95;62.10
35649;BME280;21768;48.562;13.414;2024-02-21T06:15:03;98041.22;;;7.94;61.90
35649;BME280;21768;48.562;13.414;2024-02-21T06:17:29;98034.44;;;7.93;61.54
35649;BME280;21768;48.562;13.414;2024-02-21T06:19:54;98030.56;;;7.96;61.45
35649;BME280;21768;48.562;13.414;2024-02-21T06:22:20;98030.81;;;7.99;61.38
35649;BME280;21768;48.562;13.414;2024-02-21T06:24:46;98030.19;;;8.02;61.05
35649;BME280;21768;48.562;13.414;2024-02-21T06:27:12;98031.59;;;8.08;60.92
35649;BME280;21768;48.562;13.414;2024-02-21T06:29:40;98031.13;;;8.12;60.91
35649;BME280;21768;48.562;13.414;2024-02-21T06:32:05;98027.25;;;8.16;60.56
35649;BME280;21768;48.562;13.414;2024-02-21T06:34:33;98034.25;;;8.20;60.62
35649;BME280;21768;48.562;13.414;2024-02-21T06:36:59;98027.22;;;8.26;60.64
35649;BME280;21768;48.562;13.414;2024-02-21T06:39:26;98025.72;;;8.28;60.76
35649;BME280;21768;48.562;13.414;2024-02-21T06:41:53;98014.47;;;8.33;60.76
35649;BME280;21768;48.562;13.414;2024-02-21T06:44:19;98017.38;;;8.38;60.93
35649;BME280;21768;48.562;13.414;2024-02-21T06:46:45;98015.19;;;8.42;60.36
35649;BME280;21768;48.562;13.414;2024-02-21T06:49:11;98009.81;;;8.48;60.58
35649;BME280;21768;48.562;13.414;2024-02-21T06:51:44;98014.22;;;8.50;60.65
35649;BME280;21768;48.562;13.414;2024-02-21T06:54:10;98012.97;;;8.56;60.72
35649;BME280;21768;48.562;13.414;2024-02-21T06:56:36;98024.03;;;8.58;60.68
35649;BME280;21768;48.562;13.414;2024-02-21T06:59:03;98021.66;;;8.59;61.12
35649;BME280;21768;48.562;13.414;2024-02-21T07:01:29;98021.50;;;8.58;61.10
35649;BME280;21768;48.562;13.414;2024-02-21T07:03:55;98020.25;;;8.63;61.20
35649;BME280;21768;48.562;13.414;2024-02-21T07:06:22;98021.03;;;8.62;60.90
35649;BME280;21768;48.562;13.414;2024-02-21T07:08:47;98023.78;;;8.65;60.62
35649;BME280;21768;48.562;13.414;2024-02-21T07:11:13;98020.75;;;8.69;60.32
35649;BME280;21768;48.562;13.414;2024-02-21T07:13:38;98024.00;;;8.68;60.26
35649;BME280;21768;48.562;13.414;2024-02-21T07:16:06;98018.59;;;8.73;60.15
35649;BME280;21768;48.562;13.414;2024-02-21T07:18:31;98016.47;;;8.78;59.80
35649;BME280;21768;48.562;13.414;2024-02-21T07:20:57;98017.22;;;8.67;60.06
35649;BME280;21768;48.562;13.414;2024-02-21T07:23:23;98017.09;;;8.75;60.06
35649;BME280;21768;48.562;13.414;2024-02-21T07:25:49;98015.72;;;8.89;60.02
35649;BME280;21768;48.562;13.414;2024-02-21T07:28:15;98017.56;;;9.02;59.49
35649;BME280;21768;48.562;13.414;2024-02-21T07:30:42;98022.72;;;9.13;59.43
35649;BME280;21768;48.562;13.414;2024-02-21T07:33:08;98019.28;;;9.23;59.45
35649;BME280;21768;48.562;13.414;2024-02-21T07:35:33;98015.88;;;9.33;58.86
35649;BME280;21768;48.562;13.414;2024-02-21T07:37:59;98014.34;;;9.35;58.45
35649;BME280;21768;48.562;13.414;2024-02-21T07:40:25;98010.78;;;9.43;58.28
35649;BME280;21768;48.562;13.414;2024-02-21T07:42:51;98010.03;;;9.44;58.12
35649;BME280;21768;48.562;13.414;2024-02-21T07:45:19;98014.69;;;9.49;58.07
35649;BME280;21768;48.562;13.414;2024-02-21T07:47:47;98017.06;;;9.48;57.57
35649;BME280;21768;48.562;13.414;2024-02-21T07:50:12;98022.59;;;9.54;57.61
35649;BME280;21768;48.562;13.414;2024-02-21T07:52:38;98014.13;;;9.64;57.48
35649;BME280;21768;48.562;13.414;2024-02-21T07:55:04;98016.59;;;9.74;57.34
35649;BME280;21768;48.562;13.414;2024-02-21T07:57:30;98014.69;;;9.81;57.20
35649;BME280;21768;48.562;13.414;2024-02-21T07:59:56;98002.69;;;9.89;57.01
35649;BME280;21768;48.562;13.414;2024-02-21T08:02:21;98003.34;;;9.98;56.70
35649;BME280;21768;48.562;13.414;2024-02-21T08:04:46;98000.97;;;10.00;56.37
35649;BME280;21768;48.562;13.414;2024-02-21T08:07:12;97992.63;;;10.01;56.19
35649;BME280;21768;48.562;13.414;2024-02-21T08:09:39;97989.94;;;10.09;56.01
35649;BME280;21768;48.562;13.414;2024-02-21T08:12:05;97977.13;;;10.18;56.15
35649;BME280;21768;48.562;13.414;2024-02-21T08:14:31;97979.63;;;10.28;56.19
35649;BME280;21768;48.562;13.414;2024-02-21T08:16:56;97978.00;;;10.40;55.76
35649;BME280;21768;48.562;13.414;2024-02-21T08:19:22;97984.09;;;10.66;55.46
35649;BME280;21768;48.562;13.414;2024-02-21T08:21:48;97983.28;;;10.88;54.77
35649;BME280;21768;48.562;13.414;2024-02-21T08:24:14;97978.69;;;11.06;54.15
35649;BME280;21768;48.562;13.414;2024-02-21T08:26:41;97984.38;;;11.15;53.74
35649;BME280;21768;48.562;13.414;2024-02-21T08:29:06;97985.69;;;11.22;53.62
35649;BME280;21768;48.562;13.414;2024-02-21T08:31:32;97987.03;;;11.29;53.67
35649;BME280;21768;48.562;13.414;2024-02-21T08:33:58;97991.84;;;11.49;53.63
35649;BME280;21768;48.562;13.414;2024-02-21T08:36:28;97976.25;;;11.54;53.35
35649;BME280;21768;48.562;13.414;2024-02-21T08:38:54;97976.34;;;11.56;53.00
35649;BME280;21768;48.562;13.414;2024-02-21T08:41:20;97972.50;;;11.61;52.49
35649;BME280;21768;48.562;13.414;2024-02-21T08:43:48;97961.34;;;11.71;52.07
35649;BME280;21768;48.562;13.414;2024-02-21T08:46:13;97948.47;;;11.91;51.96
35649;BME280;21768;48.562;13.414;2024-02-21T08:48:39;97953.44;;;12.14;51.45
35649;BME280;21768;48.562;13.414;2024-02-21T08:51:04;97951.59;;;12.37;50.50
35649;BME280;21768;48.562;13.414;2024-02-21T08:53:30;97946.78;;;12.66;49.96
35649;BME280;21768;48.562;13.414;2024-02-21T08:55:56;97939.31;;;13.07;49.23
35649;BME280;21768;48.562;13.414;2024-02-21T08:58:22;97937.88;;;15.22;45.74
35649;BME280;21768;48.562;13.414;2024-02-21T09:00:49;97925.25;;;17.56;40.87
35649;BME280;21768;48.562;13.414;2024-02-21T09:03:15;97918.25;;;19.51;37.01
35649;BME280;21768;48.562;13.414;2024-02-21T09:05:42;97913.25;;;20.71;34.18
35649;BME280;21768;48.562;13.414;2024-02-21T09:08:08;97910.91;;;22.17;32.41
35649;BME280;21768;48.562;13.414;2024-02-21T09:10:33;97911.03;;;23.95;29.73
35649;BME280;21768;48.562;13.414;2024-02-21T09:12:59;97905.19;;;23.27;30.40
35649;BME280;21768;48.562;13.414;2024-02-21T09:15:24;97904.41;;;20.89;32.28
35649;BME280;21768;48.562;13.414;2024-02-21T09:17:50;97903.31;;;19.41;34.82
35649;BME280;21768;48.562;13.414;2024-02-21T09:20:15;97923.13;;;18.61;36.29
35649;BME280;21768;48.562;13.414;2024-02-21T09:22:41;97913.41;;;17.95;36.91
35649;BME280;21768;48.562;13.414;2024-02-21T09:25:07;97914.69;;;17.30;38.65
35649;BME280;21768;48.562;13.414;2024-02-21T09:27:33;97922.22;;;17.27;38.62
35649;BME280;21768;48.562;13.414;2024-02-21T09:29:59;97917.94;;;19.88;35.80
35649;BME280;21768;48.562;13.414;2024-02-21T09:32:24;97907.31;;;21.52;32.76
35649;BME280;21768;48.562;13.414;2024-02-21T09:34:50;97909.25;;;22.19;29.96
35649;BME280;21768;48.562;13.414;2024-02-21T09:37:16;97912.06;;;19.90;31.85
35649;BME280;21768;48.562;13.414;2024-02-21T09:39:42;97906.78;;;17.98;34.66
35649;BME280;21768;48.562;13.414;2024-02-21T09:42:11;97913.44;;;16.87;36.79
35649;BME280;21768;48.562;13.414;2024-02-21T09:44:37;97915.63;;;16.29;37.66
35649;BME280;21768;48.562;13.414;2024-02-21T09:47:07;97917.22;;;16.11;39.03
35649;BME280;21768;48.562;13.414;2024-02-21T09:49:36;97926.19;;;16.87;38.58
35649;BME280;21768;48.562;13.414;2024-02-21T09:52:07;97920.41;;;17.07;37.38
35649;BME280;21768;48.562;13.414;2024-02-21T09:54:33;97914.41;;;17.24;37.51
35649;BME280;21768;48.562;13.414;2024-02-21T09:57:03;97905.94;;;17.08;38.05
35649;BME280;21768;48.562;13.414;2024-02-21T09:59:32;97898.91;;;17.75;37.22
35649;BME280;21768;48.562;13.414;2024-02-21T10:01:58;97889.44;;;19.56;35.17
35649;BME280;21768;48.562;13.414;2024-02-21T10:04:27;97884.34;;;22.16;31.25
35649;BME280;21768;48.562;13.414;2024-02-21T10:06:53;97882.72;;;23.98;29.11
35649;BME280;21768;48.562;13.414;2024-02-21T10:09:23;97872.69;;;25.66;26.89
35649;BME280;21768;48.562;13.414;2024-02-21T10:11:50;97870.94;;;26.36;25.73
35649;BME280;21768;48.562;13.414;2024-02-21T10:14:16;97872.63;;;26.31;25.60
35649;BME280;21768;48.562;13.414;2024-02-21T10:16:42;97876.03;;;27.18;25.28
35649;BME280;21768;48.562;13.414;2024-02-21T10:19:17;97872.16;;;25.91;25.62
35649;BME280;21768;48.562;13.414;2024-02-21T10:21:42;97872.63;;;24.11;27.93
35649;BME280;21768;48.562;13.414;2024-02-21T10:24:08;97869.78;;;23.55;28.56
35649;BME280;21768;48.562;13.414;2024-02-21T10:26:33;97868.06;;;23.96;27.53
35649;BME280;21768;48.562;13.414;2024-02-21T10:29:01;97853.13;;;23.40;28.65
35649;BME280;21768;48.562;13.414;2024-02-21T10:31:27;97850.88;;;22.15;29.93
35649;BME280;21768;48.562;13.414;2024-02-21T10:34:02;97841.00;;;21.68;31.09
35649;BME280;21768;48.562;13.414;2024-02-21T10:36:30;97846.47;;;22.42;29.81
35649;BME280;21768;48.562;13.414;2024-02-21T10:38:56;97842.75;;;23.37;28.79
35649;BME280;21768;48.562;13.414;2024-02-21T10:41:22;97845.72;;;23.96;27.55
35649;BME280;21768;48.562;13.414;2024-02-21T10:43:54;97843.00;;;24.32;27.61
35649;BME280;21768;48.562;13.414;2024-02-21T10:46:22;97836.22;;;25.49;25.52
35649;BME280;21768;48.562;13.414;2024-02-21T10:48:59;97832.59;;;25.98;25.38
35649;BME280;21768;48.562;13.414;2024-02-21T10:51:32;97820.16;;;24.55;26.75
35649;BME280;21768;48.562;13.414;2024-02-21T10:56:49;97821.59;;;25.47;25.68
35649;BME280;21768;48.562;13.414;2024-02-21T10:59:17;97814.56;;;26.09;25.23
35649;BME280;21768;48.562;13.414;2024-02-21T11:01:43;97813.59;;;26.90;24.01
35649;BME280;21768;48.562;13.414;2024-02-21T11:04:11;97817.56;;;27.74;22.98
35649;BME280;21768;48.562;13.414;2024-02-21T11:06:40;97792.69;;;28.97;22.37
35649;BME280;21768;48.562;13.414;2024-02-21T11:09:08;97785.78;;;28.81;22.04
35649;BME280;21768;48.562;13.414;2024-02-21T11:11:34;97778.78;;;28.16;22.13
35649;BME280;21768;48.562;13.414;2024-02-21T11:14:05;97783.00;;;27.77;22.68
35649;BME280;21768;48.562;13.414;2024-02-21T11:16:35;97779.91;;;26.89;23.81
35649;BME280;21768;48.562;13.414;2024-02-21T11:21:47;97770.34;;;24.09;26.42
35649;BME280;21768;48.562;13.414;2024-02-21T11:24:32;97766.53;;;24.36;26.94
35649;BME280;21768;48.562;13.414;2024-02-21T11:29:45;97749.66;;;25.83;24.88
35649;BME280;21768;48.562;13.414;2024-02-21T11:32:15;97750.56;;;26.90;23.96
35649;BME280;21768;48.562;13.414;2024-02-21T11:34:52;97746.78;;;28.71;21.65
35649;BME280;21768;48.562;13.414;2024-02-21T11:37:19;97737.66;;;30.05;20.70
35649;BME280;21768;48.562;13.414;2024-02-21T11:39:47;97726.91;;;30.48;20.03
35649;BME280;21768;48.562;13.414;2024-02-21T11:42:14;97729.28;;;31.55;19.31
35649;BME280;21768;48.562;13.414;2024-02-21T11:44:40;97713.56;;;32.73;18.08
35649;BME280;21768;48.562;13.414;2024-02-21T11:47:08;97716.06;;;33.27;17.54
35649;BME280;21768;48.562;13.414;2024-02-21T11:49:48;97703.69;;;33.75;17.67
35649;BME280;21768;48.562;13.414;2024-02-21T11:52:16;97707.19;;;32.40;17.79
35649;BME280;21768;48.562;13.414;2024-02-21T11:54:46;97706.88;;;31.40;18.89
35649;BME280;21768;48.562;13.414;2024-02-21T11:57:12;97696.09;;;31.66;19.06
35649;BME280;21768;48.562;13.414;2024-02-21T11:59:40;97692.38;;;33.34;17.35
35649;BME280;21768;48.562;13.414;2024-02-21T12:02:06;97690.03;;;34.38;16.06
35649;BME280;21768;48.562;13.414;2024-02-21T12:04:32;97682.69;;;34.85;16.24
35649;BME280;21768;48.562;13.414;2024-02-21T12:06:58;97673.94;;;35.15;15.82
35649;BME280;21768;48.562;13.414;2024-02-21T12:09:25;97666.63;;;35.26;15.74
35649;BME280;21768;48.562;13.414;2024-02-21T12:12:01;97658.72;;;35.28;15.53
35649;BME280;21768;48.562;13.414;2024-02-21T12:14:29;97662.75;;;34.77;14.81
35649;BME280;21768;48.562;13.414;2024-02-21T12:16:55;97645.31;;;33.70;15.55
35649;BME280;21768;48.562;13.414;2024-02-21T12:19:21;97647.06;;;33.32;15.80
35649;BME280;21768;48.562;13.414;2024-02-21T12:21:48;97642.50;;;32.99;15.84
35649;BME280;21768;48.562;13.414;2024-02-21T12:24:22;97638.06;;;32.05;15.99
35649;BME280;21768;48.562;13.414;2024-02-21T12:26:53;97638.84;;;29.93;17.80
35649;BME280;21768;48.562;13.414;2024-02-21T12:29:20;97634.28;;;28.05;19.08
35649;BME280;21768;48.562;13.414;2024-02-21T12:31:46;97628.03;;;26.97;20.18
35649;BME280;21768;48.562;13.414;2024-02-21T12:34:12;97621.16;;;27.09;20.75
35649;BME280;21768;48.562;13.414;2024-02-21T12:36:44;97620.47;;;28.35;19.86
35649;BME280;21768;48.562;13.414;2024-02-21T12:39:10;97607.34;;;28.92;18.88
35649;BME280;21768;48.562;13.414;2024-02-21T12:41:37;97603.09;;;28.57;19.06
35649;BME280;21768;48.562;13.414;2024-02-21T12:44:11;97603.19;;;27.96;19.56
35649;BME280;21768;48.562;13.414;2024-02-21T12:46:38;97594.53;;;27.68;19.34
35649;BME280;21768;48.562;13.414;2024-02-21T12:49:05;97594.13;;;26.54;20.44
35649;BME280;21768;48.562;13.414;2024-02-21T12:51:32;97591.16;;;25.95;21.66
35649;BME280;21768;48.562;13.414;2024-02-21T12:53:58;97589.97;;;25.61;22.32
35649;BME280;21768;48.562;13.414;2024-02-21T12:56:24;97575.00;;;25.26;22.70
35649;BME280;21768;48.562;13.414;2024-02-21T12:58:55;97575.66;;;24.39;23.66
35649;BME280;21768;48.562;13.414;2024-02-21T13:01:21;97572.16;;;23.30;24.73
35649;BME280;21768;48.562;13.414;2024-02-21T13:03:47;97562.69;;;23.26;23.56